sensor_id;sensor_type;location;lat;lon;timestamp;temperature;humidity
35043;DHT22;21230;51.170;17.024;2023-06-24T09:42:26;17.40;99.90
35043;DHT22;21230;51.170;17.024;2023-06-24T09:44:53;17.40;99.90
35043;DHT22;21230;51.170;17.024;2023-06-24T09:47:20;17.50;99.90
35043;DHT22;21230;51.170;17.024;2023-06-24T09:49:45;17.50;99.90
35043;DHT22;21230;51.170;17.024;2023-06-24T09:52:11;17.60;99.90
35043;DHT22;21230;51.170;17.024;2023-06-24T09:54:41;17.70;99.90
35043;DHT22;21230;51.170;17.024;2023-06-24T09:57:07;17.70;99.90
35043;DHT22;21230;51.170;17.024;2023-06-24T09:59:35;17.80;99.90
35043;DHT22;21230;51.170;17.024;2023-06-24T10:02:02;17.90;99.90
35043;DHT22;21230;51.170;17.024;2023-06-24T10:04:28;18.00;99.90
35043;DHT22;21230;51.170;17.024;2023-06-24T10:06:53;18.10;99.90
35043;DHT22;21230;51.170;17.024;2023-06-24T10:09:19;18.00;99.90
35043;DHT22;21230;51.170;17.024;2023-06-24T10:11:45;18.00;99.90
35043;DHT22;21230;51.170;17.024;2023-06-24T10:14:11;18.10;99.90
35043;DHT22;21230;51.170;17.024;2023-06-24T10:16:37;18.00;99.90
35043;DHT22;21230;51.170;17.024;2023-06-24T10:19:03;18.00;99.90
35043;DHT22;21230;51.170;17.024;2023-06-24T10:24:27;18.20;99.90
35043;DHT22;21230;51.170;17.024;2023-06-24T10:26:53;18.20;99.90
35043;DHT22;21230;51.170;17.024;2023-06-24T10:29:29;18.40;99.90
35043;DHT22;21230;51.170;17.024;2023-06-24T10:31:55;18.40;99.90
35043;DHT22;21230;51.170;17.024;2023-06-24T10:34:31;18.30;99.90
35043;DHT22;21230;51.170;17.024;2023-06-24T10:36:58;18.40;99.90
35043;DHT22;21230;51.170;17.024;2023-06-24T10:44:50;18.70;99.90
35043;DHT22;21230;51.170;17.024;2023-06-24T10:47:17;18.80;99.90
35043;DHT22;21230;51.170;17.024;2023-06-24T10:49:43;18.90;99.90
35043;DHT22;21230;51.170;17.024;2023-06-24T10:52:09;19.10;99.90
35043;DHT22;21230;51.170;17.024;2023-06-24T10:54:38;19.40;99.90
35043;DHT22;21230;51.170;17.024;2023-06-24T10:57:04;19.50;99.90
35043;DHT22;21230;51.170;17.024;2023-06-24T10:59:42;19.70;99.90
35043;DHT22;21230;51.170;17.024;2023-06-24T11:02:15;20.00;99.90
35043;DHT22;21230;51.170;17.024;2023-06-24T11:04:44;20.10;99.90
35043;DHT22;21230;51.170;17.024;2023-06-24T11:07:10;20.30;99.90
35043;DHT22;21230;51.170;17.024;2023-06-24T11:09:36;20.30;99.90
35043;DHT22;21230;51.170;17.024;2023-06-24T11:12:03;20.50;99.90
35043;DHT22;21230;51.170;17.024;2023-06-24T11:14:28;20.40;99.90
35043;DHT22;21230;51.170;17.024;2023-06-24T11:16:54;20.40;99.90
35043;DHT22;21230;51.170;17.024;2023-06-24T11:19:20;20.40;99.90
35043;DHT22;21230;51.170;17.024;2023-06-24T11:21:45;20.30;99.90
35043;DHT22;21230;51.170;17.024;2023-06-24T11:24:11;20.40;99.90
35043;DHT22;21230;51.170;17.024;2023-06-24T11:26:37;20.60;99.90
35043;DHT22;21230;51.170;17.024;2023-06-24T11:29:10;20.70;99.90
35043;DHT22;21230;51.170;17.024;2023-06-24T11:31:36;21.00;99.90
35043;DHT22;21230;51.170;17.024;2023-06-24T11:34:06;21.20;99.90
35043;DHT22;21230;51.170;17.024;2023-06-24T11:36:31;21.30;99.90
35043;DHT22;21230;51.170;17.024;2023-06-24T11:38:57;21.20;99.90
35043;DHT22;21230;51.170;17.024;2023-06-24T11:41:23;21.30;99.90
35043;DHT22;21230;51.170;17.024;2023-06-24T11:43:51;21.40;99.90
35043;DHT22;21230;51.170;17.024;2023-06-24T11:46:29;21.50;99.90
35043;DHT22;21230;51.170;17.024;2023-06-24T11:49:06;21.60;99.90
35043;DHT22;21230;51.170;17.024;2023-06-24T11:51:32;21.50;99.90
35043;DHT22;21230;51.170;17.024;2023-06-24T11:53:59;21.30;99.90
35043;DHT22;21230;51.170;17.024;2023-06-24T11:56:35;21.40;99.90
35043;DHT22;21230;51.170;17.024;2023-06-24T11:59:03;21.50;99.90
35043;DHT22;21230;51.170;17.024;2023-06-24T12:01:32;21.50;99.90
35043;DHT22;21230;51.170;17.024;2023-06-24T12:04:01;21.50;99.90
35043;DHT22;21230;51.170;17.024;2023-06-24T12:06:27;21.50;99.90
35043;DHT22;21230;51.170;17.024;2023-06-24T12:08:52;21.40;99.90
35043;DHT22;21230;51.170;17.024;2023-06-24T12:11:18;21.60;99.90
35043;DHT22;21230;51.170;17.024;2023-06-24T12:13:44;21.70;99.90
35043;DHT22;21230;51.170;17.024;2023-06-24T12:16:10;21.80;99.90
35043;DHT22;21230;51.170;17.024;2023-06-24T12:18:35;21.90;99.90
35043;DHT22;21230;51.170;17.024;2023-06-24T12:21:01;22.00;99.90
35043;DHT22;21230;51.170;17.024;2023-06-24T12:23:27;22.10;99.90
35043;DHT22;21230;51.170;17.024;2023-06-24T12:25:52;22.20;99.90
35043;DHT22;21230;51.170;17.024;2023-06-24T12:28:18;22.10;98.20
35043;DHT22;21230;51.170;17.024;2023-06-24T12:30:43;22.20;99.90
35043;DHT22;21230;51.170;17.024;2023-06-24T12:33:09;22.50;99.90
35043;DHT22;21230;51.170;17.024;2023-06-24T12:35:35;22.70;99.90
35043;DHT22;21230;51.170;17.024;2023-06-24T12:38:03;22.80;95.70
35043;DHT22;21230;51.170;17.024;2023-06-24T12:40:28;22.90;95.40
35043;DHT22;21230;51.170;17.024;2023-06-24T12:42:54;23.00;92.80
35043;DHT22;21230;51.170;17.024;2023-06-24T12:45:21;22.80;93.30
35043;DHT22;21230;51.170;17.024;2023-06-24T12:47:46;22.90;94.50
35043;DHT22;21230;51.170;17.024;2023-06-24T12:50:12;23.00;94.10
35043;DHT22;21230;51.170;17.024;2023-06-24T12:52:38;23.00;91.70
35043;DHT22;21230;51.170;17.024;2023-06-24T12:55:05;23.10;92.90
35043;DHT22;21230;51.170;17.024;2023-06-24T12:57:31;23.00;91.80
35043;DHT22;21230;51.170;17.024;2023-06-24T12:59:57;22.80;87.30
35043;DHT22;21230;51.170;17.024;2023-06-24T13:02:23;22.80;90.30
35043;DHT22;21230;51.170;17.024;2023-06-24T13:04:48;22.90;91.80
35043;DHT22;21230;51.170;17.024;2023-06-24T13:07:14;23.00;90.70
35043;DHT22;21230;51.170;17.024;2023-06-24T13:09:39;22.90;90.40
35043;DHT22;21230;51.170;17.024;2023-06-24T13:12:05;22.80;90.10
35043;DHT22;21230;51.170;17.024;2023-06-24T13:14:31;22.80;89.40
35043;DHT22;21230;51.170;17.024;2023-06-24T13:16:57;22.70;89.80
35043;DHT22;21230;51.170;17.024;2023-06-24T13:19:22;22.70;90.10
35043;DHT22;21230;51.170;17.024;2023-06-24T13:21:48;22.60;93.90
35043;DHT22;21230;51.170;17.024;2023-06-24T13:24:13;22.50;92.30
35043;DHT22;21230;51.170;17.024;2023-06-24T13:26:39;22.50;92.90
35043;DHT22;21230;51.170;17.024;2023-06-24T13:29:05;22.50;92.40
35043;DHT22;21230;51.170;17.024;2023-06-24T13:31:31;22.50;92.50
35043;DHT22;21230;51.170;17.024;2023-06-24T13:33:57;22.60;92.40
35043;DHT22;21230;51.170;17.024;2023-06-24T13:36:30;22.80;91.80
35043;DHT22;21230;51.170;17.024;2023-06-24T13:38:56;23.00;87.10
35043;DHT22;21230;51.170;17.024;2023-06-24T13:41:22;23.00;82.20
35043;DHT22;21230;51.170;17.024;2023-06-24T13:43:47;23.00;81.60
35043;DHT22;21230;51.170;17.024;2023-06-24T13:46:13;23.10;80.50
35043;DHT22;21230;51.170;17.024;2023-06-24T13:48:39;23.20;79.60
35043;DHT22;21230;51.170;17.024;2023-06-24T13:51:04;23.20;79.60
35043;DHT22;21230;51.170;17.024;2023-06-24T13:53:32;23.10;73.90
35043;DHT22;21230;51.170;17.024;2023-06-24T13:55:57;23.00;73.80
35043;DHT22;21230;51.170;17.024;2023-06-24T13:58:23;23.00;73.90
35043;DHT22;21230;51.170;17.024;2023-06-24T14:00:49;22.90;74.90
35043;DHT22;21230;51.170;17.024;2023-06-24T14:03:15;23.00;75.20
35043;DHT22;21230;51.170;17.024;2023-06-24T14:05:40;23.30;74.00
35043;DHT22;21230;51.170;17.024;2023-06-24T14:08:06;23.30;69.70
35043;DHT22;21230;51.170;17.024;2023-06-24T14:10:32;23.40;73.10
35043;DHT22;21230;51.170;17.024;2023-06-24T14:12:57;23.30;71.00
35043;DHT22;21230;51.170;17.024;2023-06-24T14:15:23;23.30;70.30
35043;DHT22;21230;51.170;17.024;2023-06-24T14:17:48;23.30;72.10
35043;DHT22;21230;51.170;17.024;2023-06-24T14:20:14;23.10;72.40
35043;DHT22;21230;51.170;17.024;2023-06-24T14:22:40;23.00;74.50
35043;DHT22;21230;51.170;17.024;2023-06-24T14:25:05;23.00;77.10
35043;DHT22;21230;51.170;17.024;2023-06-24T14:27:31;23.00;74.90
35043;DHT22;21230;51.170;17.024;2023-06-24T14:29:57;23.00;75.00
35043;DHT22;21230;51.170;17.024;2023-06-24T14:32:22;22.90;76.10
35043;DHT22;21230;51.170;17.024;2023-06-24T14:34:48;23.00;79.10
35043;DHT22;21230;51.170;17.024;2023-06-24T14:37:14;23.00;77.20
35043;DHT22;21230;51.170;17.024;2023-06-24T14:39:40;23.00;75.80
35043;DHT22;21230;51.170;17.024;2023-06-24T14:42:06;23.00;77.30
35043;DHT22;21230;51.170;17.024;2023-06-24T14:44:31;23.00;75.10
35043;DHT22;21230;51.170;17.024;2023-06-24T14:46:57;23.00;78.20
35043;DHT22;21230;51.170;17.024;2023-06-24T14:49:23;23.00;79.70
35043;DHT22;21230;51.170;17.024;2023-06-24T14:51:48;22.90;75.50
35043;DHT22;21230;51.170;17.024;2023-06-24T14:54:14;23.00;80.00
35043;DHT22;21230;51.170;17.024;2023-06-24T14:56:39;22.90;78.90
35043;DHT22;21230;51.170;17.024;2023-06-24T14:59:05;23.00;80.10
35043;DHT22;21230;51.170;17.024;2023-06-24T15:01:31;23.00;77.50
35043;DHT22;21230;51.170;17.024;2023-06-24T15:03:56;23.10;79.20
35043;DHT22;21230;51.170;17.024;2023-06-24T15:06:22;23.20;78.80
35043;DHT22;21230;51.170;17.024;2023-06-24T15:08:48;23.20;75.80
35043;DHT22;21230;51.170;17.024;2023-06-24T15:11:13;23.10;73.70
35043;DHT22;21230;51.170;17.024;2023-06-24T15:13:39;23.10;74.10
35043;DHT22;21230;51.170;17.024;2023-06-24T15:16:05;23.20;74.90
35043;DHT22;21230;51.170;17.024;2023-06-24T15:18:30;23.40;71.70
35043;DHT22;21230;51.170;17.024;2023-06-24T15:20:56;23.50;73.20
35043;DHT22;21230;51.170;17.024;2023-06-24T15:23:22;23.60;74.00
35043;DHT22;21230;51.170;17.024;2023-06-24T15:25:48;23.50;70.20
35043;DHT22;21230;51.170;17.024;2023-06-24T15:28:15;23.40;68.10
35043;DHT22;21230;51.170;17.024;2023-06-24T15:30:44;23.50;72.30
35043;DHT22;21230;51.170;17.024;2023-06-24T15:33:09;23.50;71.70
35043;DHT22;21230;51.170;17.024;2023-06-24T15:35:35;23.70;71.80
35043;DHT22;21230;51.170;17.024;2023-06-24T15:38:00;23.70;69.90
35043;DHT22;21230;51.170;17.024;2023-06-24T15:40:26;23.90;69.90
35043;DHT22;21230;51.170;17.024;2023-06-24T15:42:52;24.00;68.10
35043;DHT22;21230;51.170;17.024;2023-06-24T15:45:18;23.90;67.30
35043;DHT22;21230;51.170;17.024;2023-06-24T15:47:44;23.90;66.80
35043;DHT22;21230;51.170;17.024;2023-06-24T15:50:10;23.90;66.30
35043;DHT22;21230;51.170;17.024;2023-06-24T15:52:35;23.70;67.10
35043;DHT22;21230;51.170;17.024;2023-06-24T15:55:01;23.70;69.00
35043;DHT22;21230;51.170;17.024;2023-06-24T15:57:27;23.70;70.40
35043;DHT22;21230;51.170;17.024;2023-06-24T15:59:52;23.70;67.00
35043;DHT22;21230;51.170;17.024;2023-06-24T16:02:18;23.70;66.40
35043;DHT22;21230;51.170;17.024;2023-06-24T16:04:44;23.60;66.10
35043;DHT22;21230;51.170;17.024;2023-06-24T16:07:10;23.40;63.90
35043;DHT22;21230;51.170;17.024;2023-06-24T16:09:35;23.30;66.00
35043;DHT22;21230;51.170;17.024;2023-06-24T16:12:04;23.40;67.60
35043;DHT22;21230;51.170;17.024;2023-06-24T16:14:30;23.40;68.30
35043;DHT22;21230;51.170;17.024;2023-06-24T16:16:55;23.50;69.10
35043;DHT22;21230;51.170;17.024;2023-06-24T16:19:22;23.70;68.60
35043;DHT22;21230;51.170;17.024;2023-06-24T16:21:47;23.70;67.80
35043;DHT22;21230;51.170;17.024;2023-06-24T16:24:13;23.60;64.60
35043;DHT22;21230;51.170;17.024;2023-06-24T16:26:39;23.40;65.40
35043;DHT22;21230;51.170;17.024;2023-06-24T16:29:04;23.40;66.50
35043;DHT22;21230;51.170;17.024;2023-06-24T16:31:30;23.30;68.20
35043;DHT22;21230;51.170;17.024;2023-06-24T16:33:56;23.30;68.30
35043;DHT22;21230;51.170;17.024;2023-06-24T16:36:21;23.30;69.30
35043;DHT22;21230;51.170;17.024;2023-06-24T16:38:47;23.30;70.00
35043;DHT22;21230;51.170;17.024;2023-06-24T16:41:13;23.20;70.30
35043;DHT22;21230;51.170;17.024;2023-06-24T16:43:38;23.20;70.00
35043;DHT22;21230;51.170;17.024;2023-06-24T16:46:04;23.10;71.20
35043;DHT22;21230;51.170;17.024;2023-06-24T16:48:30;23.10;70.80
35043;DHT22;21230;51.170;17.024;2023-06-24T16:50:55;23.00;71.30
35043;DHT22;21230;51.170;17.024;2023-06-24T16:53:21;23.00;72.50
35043;DHT22;21230;51.170;17.024;2023-06-24T16:55:47;22.90;71.90
35043;DHT22;21230;51.170;17.024;2023-06-24T16:58:13;22.90;72.90
35043;DHT22;21230;51.170;17.024;2023-06-24T17:00:39;22.90;73.60
35043;DHT22;21230;51.170;17.024;2023-06-24T17:03:04;22.80;74.50
35043;DHT22;21230;51.170;17.024;2023-06-24T17:05:30;22.70;74.90
35043;DHT22;21230;51.170;17.024;2023-06-24T17:07:56;22.70;75.20
35043;DHT22;21230;51.170;17.024;2023-06-24T17:10:21;22.70;76.00
35043;DHT22;21230;51.170;17.024;2023-06-24T17:12:47;22.60;78.10
35043;DHT22;21230;51.170;17.024;2023-06-24T17:15:12;22.60;78.70
35043;DHT22;21230;51.170;17.024;2023-06-24T17:17:38;22.60;80.00
35043;DHT22;21230;51.170;17.024;2023-06-24T17:20:04;22.60;79.70
35043;DHT22;21230;51.170;17.024;2023-06-24T17:22:30;22.50;81.00
35043;DHT22;21230;51.170;17.024;2023-06-24T17:24:55;22.50;80.90
35043;DHT22;21230;51.170;17.024;2023-06-24T17:27:21;22.40;82.50
35043;DHT22;21230;51.170;17.024;2023-06-24T17:29:47;22.30;83.50
35043;DHT22;21230;51.170;17.024;2023-06-24T17:32:13;22.30;84.40
35043;DHT22;21230;51.170;17.024;2023-06-24T17:34:39;22.30;81.80
35043;DHT22;21230;51.170;17.024;2023-06-24T17:37:05;22.30;83.40
35043;DHT22;21230;51.170;17.024;2023-06-24T17:39:30;22.30;83.40
35043;DHT22;21230;51.170;17.024;2023-06-24T17:41:56;22.30;83.80
35043;DHT22;21230;51.170;17.024;2023-06-24T17:44:22;22.40;84.30
35043;DHT22;21230;51.170;17.024;2023-06-24T17:46:47;22.60;84.00
35043;DHT22;21230;51.170;17.024;2023-06-24T17:49:13;22.80;81.40
35043;DHT22;21230;51.170;17.024;2023-06-24T17:51:38;22.80;81.20
35043;DHT22;21230;51.170;17.024;2023-06-24T17:54:04;22.60;83.30
35043;DHT22;21230;51.170;17.024;2023-06-24T17:56:30;22.50;85.00
35043;DHT22;21230;51.170;17.024;2023-06-24T17:58:55;22.40;86.20
35043;DHT22;21230;51.170;17.024;2023-06-24T18:01:21;22.30;88.10
35043;DHT22;21230;51.170;17.024;2023-06-24T18:03:50;22.40;89.10
35043;DHT22;21230;51.170;17.024;2023-06-24T18:08:44;22.90;86.60
35043;DHT22;21230;51.170;17.024;2023-06-24T18:11:10;23.20;84.70
35043;DHT22;21230;51.170;17.024;2023-06-24T18:13:36;23.50;83.60
35043;DHT22;21230;51.170;17.024;2023-06-24T18:16:01;23.60;81.00
35043;DHT22;21230;51.170;17.024;2023-06-24T18:18:30;23.50;79.30
35043;DHT22;21230;51.170;17.024;2023-06-24T18:21:02;23.40;80.30
35043;DHT22;21230;51.170;17.024;2023-06-24T18:23:28;23.00;81.70
35043;DHT22;21230;51.170;17.024;2023-06-24T18:25:54;22.80;83.60
35043;DHT22;21230;51.170;17.024;2023-06-24T18:28:22;22.60;86.10
35043;DHT22;21230;51.170;17.024;2023-06-24T18:30:47;22.40;88.50
35043;DHT22;21230;51.170;17.024;2023-06-24T18:33:14;22.20;90.50
35043;DHT22;21230;51.170;17.024;2023-06-24T18:35:40;22.00;91.60
35043;DHT22;21230;51.170;17.024;2023-06-24T18:38:05;21.90;92.20
35043;DHT22;21230;51.170;17.024;2023-06-24T18:40:31;21.90;93.20
35043;DHT22;21230;51.170;17.024;2023-06-24T18:42:57;21.90;93.80
35043;DHT22;21230;51.170;17.024;2023-06-24T18:45:23;21.90;94.20
35043;DHT22;21230;51.170;17.024;2023-06-24T18:47:52;21.90;94.30
35043;DHT22;21230;51.170;17.024;2023-06-24T18:50:19;22.00;94.70
35043;DHT22;21230;51.170;17.024;2023-06-24T18:52:45;21.90;94.00
35043;DHT22;21230;51.170;17.024;2023-06-24T18:55:11;21.90;94.40
35043;DHT22;21230;51.170;17.024;2023-06-24T18:57:36;21.80;94.40
35043;DHT22;21230;51.170;17.024;2023-06-24T19:00:02;21.80;94.80
35043;DHT22;21230;51.170;17.024;2023-06-24T19:02:28;21.60;96.50
35043;DHT22;21230;51.170;17.024;2023-06-24T19:04:54;21.60;98.30
35043;DHT22;21230;51.170;17.024;2023-06-24T19:07:19;21.40;98.70
35043;DHT22;21230;51.170;17.024;2023-06-24T19:09:45;21.30;99.40
35043;DHT22;21230;51.170;17.024;2023-06-24T19:12:10;21.20;99.70
35043;DHT22;21230;51.170;17.024;2023-06-24T19:14:36;21.20;99.90
35043;DHT22;21230;51.170;17.024;2023-06-24T19:17:02;21.10;99.90
35043;DHT22;21230;51.170;17.024;2023-06-24T19:19:28;21.00;99.90
35043;DHT22;21230;51.170;17.024;2023-06-24T19:21:54;21.00;99.90
35043;DHT22;21230;51.170;17.024;2023-06-24T19:24:20;21.00;99.90
35043;DHT22;21230;51.170;17.024;2023-06-24T19:26:45;20.90;99.90
35043;DHT22;21230;51.170;17.024;2023-06-24T19:29:11;20.80;99.90
35043;DHT22;21230;51.170;17.024;2023-06-24T19:31:37;20.80;99.90
35043;DHT22;21230;51.170;17.024;2023-06-24T19:34:02;20.80;99.90
35043;DHT22;21230;51.170;17.024;2023-06-24T19:36:28;20.70;99.90
35043;DHT22;21230;51.170;17.024;2023-06-24T19:38:54;20.70;99.90
35043;DHT22;21230;51.170;17.024;2023-06-24T19:41:20;20.70;99.90
35043;DHT22;21230;51.170;17.024;2023-06-24T19:43:47;20.60;99.90
35043;DHT22;21230;51.170;17.024;2023-06-24T19:46:13;20.60;99.90
35043;DHT22;21230;51.170;17.024;2023-06-24T19:48:39;20.50;99.90
35043;DHT22;21230;51.170;17.024;2023-06-24T19:51:04;20.50;99.90
35043;DHT22;21230;51.170;17.024;2023-06-24T19:53:30;20.40;99.90
35043;DHT22;21230;51.170;17.024;2023-06-24T19:55:56;20.40;99.90
35043;DHT22;21230;51.170;17.024;2023-06-24T19:58:21;20.30;99.90
35043;DHT22;21230;51.170;17.024;2023-06-24T20:00:48;20.30;99.90
35043;DHT22;21230;51.170;17.024;2023-06-24T20:03:14;20.20;99.90
35043;DHT22;21230;51.170;17.024;2023-06-24T20:05:39;20.10;99.90
35043;DHT22;21230;51.170;17.024;2023-06-24T20:08:06;20.00;99.90
35043;DHT22;21230;51.170;17.024;2023-06-24T20:10:32;19.90;99.90
35043;DHT22;21230;51.170;17.024;2023-06-24T20:12:58;19.90;99.90
35043;DHT22;21230;51.170;17.024;2023-06-24T20:15:24;19.80;99.90
35043;DHT22;21230;51.170;17.024;2023-06-24T20:17:49;19.70;99.90
35043;DHT22;21230;51.170;17.024;2023-06-24T20:20:15;19.60;99.90
35043;DHT22;21230;51.170;17.024;2023-06-24T20:22:41;19.60;99.90
35043;DHT22;21230;51.170;17.024;2023-06-24T20:25:07;19.50;99.90
35043;DHT22;21230;51.170;17.024;2023-06-24T20:27:33;19.50;99.90
35043;DHT22;21230;51.170;17.024;2023-06-24T20:29:59;19.50;99.90
35043;DHT22;21230;51.170;17.024;2023-06-24T20:32:25;19.40;99.90
35043;DHT22;21230;51.170;17.024;2023-06-24T20:34:50;19.30;99.90
35043;DHT22;21230;51.170;17.024;2023-06-24T20:37:16;19.20;99.90
35043;DHT22;21230;51.170;17.024;2023-06-24T20:39:42;19.00;99.90
35043;DHT22;21230;51.170;17.024;2023-06-24T20:42:09;19.00;99.90
35043;DHT22;21230;51.170;17.024;2023-06-24T20:44:35;19.00;99.90
35043;DHT22;21230;51.170;17.024;2023-06-24T20:47:01;18.90;99.90
35043;DHT22;21230;51.170;17.024;2023-06-24T20:49:27;18.90;99.90
35043;DHT22;21230;51.170;17.024;2023-06-24T20:51:53;18.80;99.90
35043;DHT22;21230;51.170;17.024;2023-06-24T20:54:19;18.80;99.90
35043;DHT22;21230;51.170;17.024;2023-06-24T20:56:45;18.70;99.90
35043;DHT22;21230;51.170;17.024;2023-06-24T20:59:10;18.60;99.90
35043;DHT22;21230;51.170;17.024;2023-06-24T21:01:37;18.60;99.90
35043;DHT22;21230;51.170;17.024;2023-06-24T21:04:03;18.50;99.90
35043;DHT22;21230;51.170;17.024;2023-06-24T21:06:28;18.40;99.90
35043;DHT22;21230;51.170;17.024;2023-06-24T21:08:54;18.40;99.90
35043;DHT22;21230;51.170;17.024;2023-06-24T21:11:20;18.40;99.90
35043;DHT22;21230;51.170;17.024;2023-06-24T21:13:49;18.30;99.90
35043;DHT22;21230;51.170;17.024;2023-06-24T21:16:15;18.30;99.90
35043;DHT22;21230;51.170;17.024;2023-06-24T21:18:40;18.20;99.90
35043;DHT22;21230;51.170;17.024;2023-06-24T21:21:07;18.20;99.90
35043;DHT22;21230;51.170;17.024;2023-06-24T21:23:32;18.20;99.90
35043;DHT22;21230;51.170;17.024;2023-06-24T21:25:58;18.20;99.90
35043;DHT22;21230;51.170;17.024;2023-06-24T21:28:24;18.20;99.90
35043;DHT22;21230;51.170;17.024;2023-06-24T21:30:49;18.10;99.90
35043;DHT22;21230;51.170;17.024;2023-06-24T21:33:15;18.00;99.90
35043;DHT22;21230;51.170;17.024;2023-06-24T21:35:41;18.00;99.90
35043;DHT22;21230;51.170;17.024;2023-06-24T21:38:06;17.90;99.90
35043;DHT22;21230;51.170;17.024;2023-06-24T21:40:32;17.80;99.90
35043;DHT22;21230;51.170;17.024;2023-06-24T21:42:57;17.70;99.90
35043;DHT22;21230;51.170;17.024;2023-06-24T21:45:24;17.70;99.90
35043;DHT22;21230;51.170;17.024;2023-06-24T21:47:50;17.60;99.90
35043;DHT22;21230;51.170;17.024;2023-06-24T21:50:16;17.70;99.90
35043;DHT22;21230;51.170;17.024;2023-06-24T21:52:41;17.70;99.90
35043;DHT22;21230;51.170;17.024;2023-06-24T21:55:07;17.60;99.90
35043;DHT22;21230;51.170;17.024;2023-06-24T21:57:33;17.60;99.90
35043;DHT22;21230;51.170;17.024;2023-06-24T21:59:59;17.50;99.90
35043;DHT22;21230;51.170;17.024;2023-06-24T22:02:25;17.50;99.90
35043;DHT22;21230;51.170;17.024;2023-06-24T22:04:50;17.40;99.90
35043;DHT22;21230;51.170;17.024;2023-06-24T22:07:16;17.30;99.90
35043;DHT22;21230;51.170;17.024;2023-06-24T22:09:41;17.30;99.90
35043;DHT22;21230;51.170;17.024;2023-06-24T22:12:10;17.20;99.90
35043;DHT22;21230;51.170;17.024;2023-06-24T22:14:36;17.20;99.90
35043;DHT22;21230;51.170;17.024;2023-06-24T22:17:01;17.20;99.90
35043;DHT22;21230;51.170;17.024;2023-06-24T22:19:27;17.20;99.90
35043;DHT22;21230;51.170;17.024;2023-06-24T22:21:53;17.10;99.90
35043;DHT22;21230;51.170;17.024;2023-06-24T22:24:18;17.10;99.90
35043;DHT22;21230;51.170;17.024;2023-06-24T22:26:44;17.10;99.90
35043;DHT22;21230;51.170;17.024;2023-06-24T22:29:09;17.00;99.90
35043;DHT22;21230;51.170;17.024;2023-06-24T22:31:35;17.00;99.90
35043;DHT22;21230;51.170;17.024;2023-06-24T22:34:01;17.00;99.90
35043;DHT22;21230;51.170;17.024;2023-06-24T22:36:26;17.00;99.90
35043;DHT22;21230;51.170;17.024;2023-06-24T22:38:52;16.90;99.90
35043;DHT22;21230;51.170;17.024;2023-06-24T22:41:17;17.00;99.90
35043;DHT22;21230;51.170;17.024;2023-06-24T22:43:43;16.90;99.90
35043;DHT22;21230;51.170;17.024;2023-06-24T22:46:09;16.90;99.90
35043;DHT22;21230;51.170;17.024;2023-06-24T22:48:34;16.80;99.90
35043;DHT22;21230;51.170;17.024;2023-06-24T22:51:00;16.80;99.90
35043;DHT22;21230;51.170;17.024;2023-06-24T22:53:26;16.80;99.90
35043;DHT22;21230;51.170;17.024;2023-06-24T22:55:51;16.80;99.90
35043;DHT22;21230;51.170;17.024;2023-06-24T22:58:17;16.70;99.90
35043;DHT22;21230;51.170;17.024;2023-06-24T23:00:43;16.70;99.90
35043;DHT22;21230;51.170;17.024;2023-06-24T23:03:08;16.70;99.90
35043;DHT22;21230;51.170;17.024;2023-06-24T23:05:34;16.70;99.90
35043;DHT22;21230;51.170;17.024;2023-06-24T23:08:00;16.70;99.90
35043;DHT22;21230;51.170;17.024;2023-06-24T23:10:26;16.60;99.90
35043;DHT22;21230;51.170;17.024;2023-06-24T23:12:51;16.60;99.90
35043;DHT22;21230;51.170;17.024;2023-06-24T23:15:17;16.60;99.90
35043;DHT22;21230;51.170;17.024;2023-06-24T23:17:43;16.50;99.90
35043;DHT22;21230;51.170;17.024;2023-06-24T23:20:09;16.50;99.90
35043;DHT22;21230;51.170;17.024;2023-06-24T23:22:35;16.50;99.90
35043;DHT22;21230;51.170;17.024;2023-06-24T23:25:01;16.40;99.90
35043;DHT22;21230;51.170;17.024;2023-06-24T23:27:27;16.40;99.90
35043;DHT22;21230;51.170;17.024;2023-06-24T23:30:00;16.30;99.90
35043;DHT22;21230;51.170;17.024;2023-06-24T23:32:28;16.30;99.90
35043;DHT22;21230;51.170;17.024;2023-06-24T23:34:57;16.20;99.90
35043;DHT22;21230;51.170;17.024;2023-06-24T23:37:23;16.20;99.90
35043;DHT22;21230;51.170;17.024;2023-06-24T23:39:51;16.20;99.90
35043;DHT22;21230;51.170;17.024;2023-06-24T23:42:17;16.10;99.90
35043;DHT22;21230;51.170;17.024;2023-06-24T23:44:43;16.10;99.90
35043;DHT22;21230;51.170;17.024;2023-06-24T23:47:09;16.10;99.90
35043;DHT22;21230;51.170;17.024;2023-06-24T23:49:34;16.00;99.90
35043;DHT22;21230;51.170;17.024;2023-06-24T23:52:00;16.00;99.90
35043;DHT22;21230;51.170;17.024;2023-06-24T23:54:26;16.00;99.90
35043;DHT22;21230;51.170;17.024;2023-06-24T23:56:51;16.00;99.90
35043;DHT22;21230;51.170;17.024;2023-06-24T23:59:18;16.00;99.90
